Weather Underground® Station Historical Data


Station Historical Data For Bruceton, TN. (K3JAE's Weather Station - KTNBRUCE2)
Daily Summary for:  February 10, 2018 Units:  English    Metric   Both
« Previous Day
Next Day »
Daily Weekly Monthly Yearly Custom
  High: Low: Average:
Temperature: 54.9 °F 39.8 °F 48.5 °F
Dew Point: 50.8 °F 36.0 °F 44.2 °F
Humidity: 86% 83% 85%
Wind Speed: 11.5mph 0.0mph 2.8mph
Wind Gust: 11.5mph - -
Wind- - East
Pressure: 30.07 in 29.88 in -
Precipitation: 2.12 in    
Historical Graphs
 
 
Tabular Data for:  February 10, 2018
Time Temperature Dew Point Pressure Wind Wind Speed Wind Gust Humidity Rainfall Rate (Hourly) solar Conditions
00:02 49.6 °F 45.6 °F 30.06 in SSW 3.5 mph 3.5 mph 86% 0.11 in 0.0 W/m2 RA
00:07 49.7 °F 45.4 °F 30.07 in SSW 3.5 mph 3.5 mph 85% 0.13 in 0.0 W/m2 RA
00:12 50.0 °F 45.7 °F 30.06 in SSW 3.5 mph 3.5 mph 85% 0.14 in 0.0 W/m2 RA
00:17 50.1 °F 45.5 °F 30.07 in SSW 2.3 mph 2.3 mph 84% 0.15 in 0.0 W/m2 RA
00:22 50.3 °F 45.6 °F 30.07 in SSW 1.2 mph 1.2 mph 84% 0.16 in 0.0 W/m2 RA
00:27 50.4 °F 45.7 °F 30.07 in SSW 2.3 mph 2.3 mph 84% 0.17 in 0.0 W/m2 RA
00:32 50.5 °F 45.8 °F 30.06 in South 3.5 mph 3.5 mph 84% 0.18 in 0.0 W/m2 RA
00:37 50.6 °F 45.9 °F 30.05 in South 4.0 mph 4.0 mph 84% 0.20 in 0.0 W/m2 RA
00:42 50.9 °F 46.2 °F 30.05 in South 4.0 mph 4.0 mph 84% 0.21 in 0.0 W/m2 RA
00:47 51.0 °F 46.3 °F 30.05 in SSE 11.5 mph 11.5 mph 84% 0.27 in 0.0 W/m2 RA
00:52 51.3 °F 46.6 °F 30.05 in SSW 4.6 mph 4.6 mph 84% 0.32 in 0.0 W/m2 RA
00:57 51.4 °F 46.4 °F 30.05 in South 3.0 mph 3.0 mph 83% 0.31 in 0.0 W/m2 OVC
01:02 51.4 °F 46.4 °F 30.04 in South 2.3 mph   83% 0.31 in 0.0 W/m2 -RA
01:07 51.4 °F 46.4 °F 30.04 in South 1.2 mph 1.2 mph 83% 0.28 in 0.0 W/m2 -RA
01:12 51.4 °F 46.4 °F 30.04 in Calm     83% 0.27 in 0.0 W/m2 -RA
01:17 51.4 °F 46.4 °F 30.05 in Calm     83% 0.55 in 0.0 W/m2 -RA
01:22 51.3 °F 46.3 °F 30.06 in SW 3.5 mph 3.5 mph 83% 0.54 in 0.0 W/m2 -RA
01:27 51.3 °F 46.3 °F 30.06 in West 2.3 mph 2.3 mph 83% 0.52 in 0.0 W/m2 -RA
01:32 51.3 °F 46.3 °F 30.06 in NNW 2.3 mph 2.3 mph 83% 0.54 in 0.0 W/m2 -RA
01:37 51.2 °F 46.2 °F 30.04 in NNW 2.3 mph 2.3 mph 83% 0.55 in 0.0 W/m2 -RA
01:42 51.1 °F 46.1 °F 30.03 in NNW 2.3 mph 2.3 mph 83% 0.53 in 0.0 W/m2 -RA
01:47 51.0 °F 46.0 °F 30.03 in North 2.3 mph 2.3 mph 83% 0.46 in 0.0 W/m2 -RA
01:52 50.9 °F 45.9 °F 30.02 in North 3.5 mph 3.5 mph 83% 0.42 in 0.0 W/m2 -RA
01:57 50.8 °F 45.8 °F 30.02 in North 1.2 mph 1.2 mph 83% 0.43 in 0.0 W/m2 -RA
02:02 50.9 °F 45.9 °F 30.02 in NNE 1.2 mph 1.2 mph 83% 0.42 in 0.0 W/m2 -RA
02:07 50.9 °F 45.9 °F 30.03 in NNE 2.0 mph 2.0 mph 83% 0.43 in 0.0 W/m2 -RA
02:12 51.0 °F 46.0 °F 30.03 in NNE 3.5 mph 3.5 mph 83% 0.44 in 0.0 W/m2 -RA
02:17 51.0 °F 46.0 °F 30.03 in NNE 2.3 mph 2.3 mph 83% 0.19 in 0.0 W/m2 -RA
02:22 51.0 °F 46.0 °F 30.02 in NNE 2.3 mph 2.3 mph 83% 0.21 in 0.0 W/m2 -RA
02:27 50.9 °F 45.9 °F 30.01 in NNE 1.2 mph   83% 0.22 in 0.0 W/m2 -RA
02:32 50.9 °F 45.9 °F 30.02 in Calm     83% 0.18 in 0.0 W/m2 -RA
02:37 51.0 °F 46.0 °F 30.04 in NW 9.2 mph 9.2 mph 83% 0.13 in 0.0 W/m2 -RA
02:42 51.0 °F 46.0 °F 30.02 in West 3.5 mph 3.5 mph 83% 0.14 in 0.0 W/m2 -RA
02:48 51.1 °F 46.4 °F 30.03 in NW 5.0 mph 5.0 mph 84% 0.17 in 0.0 W/m2 -RA
02:53 51.1 °F 46.4 °F 30.03 in WNW 6.9 mph 6.9 mph 84% 0.16 in 0.0 W/m2 -RA
02:58 51.1 °F 46.4 °F 30.03 in WNW 2.0 mph 2.0 mph 84% 0.16 in 0.0 W/m2 -RA
03:03 51.2 °F 46.5 °F 30.03 in WNW 1.2 mph 1.2 mph 84% 0.19 in 0.0 W/m2 RA
03:08 51.1 °F 46.4 °F 30.02 in WNW 2.0 mph 2.0 mph 84% 0.20 in 0.0 W/m2 RA
03:13 51.1 °F 46.4 °F 30.02 in WNW 1.2 mph 1.2 mph 84% 0.20 in 0.0 W/m2 RA
03:18 51.1 °F 46.4 °F 30.02 in Calm     84% 0.16 in 0.0 W/m2 OVC
03:23 51.1 °F 46.4 °F 30.01 in WNW 2.3 mph 2.3 mph 84% 0.14 in 0.0 W/m2 OVC
03:28 51.0 °F 46.3 °F 30.01 in Calm     84% 0.13 in 0.0 W/m2 OVC
03:33 51.1 °F 46.4 °F 30.02 in WNW 2.3 mph 2.3 mph 84% 0.13 in 0.0 W/m2 OVC
03:38 51.0 °F 46.3 °F 30.01 in WNW 1.2 mph 1.2 mph 84% 0.14 in 0.0 W/m2 RA
03:43 51.0 °F 46.3 °F 30.01 in Calm     84% 0.13 in 0.0 W/m2 RA
03:48 51.0 °F 46.3 °F 30.01 in WNW 1.2 mph   84% 0.09 in 0.0 W/m2 OVC
03:53 50.9 °F 46.2 °F 30.01 in Calm     84% 0.10 in 0.0 W/m2 RA
03:58 50.9 °F 46.2 °F 30.02 in WNW 2.3 mph 2.3 mph 84% 0.09 in 0.0 W/m2 OVC
04:03 50.9 °F 46.2 °F 30.02 in WNW 1.2 mph   84% 0.06 in 0.0 W/m2 +RA
04:08 50.8 °F 46.1 °F 30.02 in Calm     84% 0.06 in 0.0 W/m2 +RA
04:13 50.8 °F 46.1 °F 30.02 in Calm     84% 0.05 in 0.0 W/m2 +RA
04:18 50.8 °F 46.1 °F 30.02 in Calm     84% 0.07 in 0.0 W/m2 RA
04:23 50.8 °F 46.1 °F 30.02 in Calm     84% 0.07 in 0.0 W/m2 +RA
04:28 50.8 °F 46.1 °F 30.02 in Calm     84% 0.07 in 0.0 W/m2 +RA
04:33 50.7 °F 46.0 °F 30.02 in Calm     84% 0.07 in 0.0 W/m2 OVC
04:38 50.7 °F 46.0 °F 30.03 in Calm     84% 0.06 in 0.0 W/m2 OVC
04:43 50.7 °F 46.0 °F 30.03 in WNW 2.3 mph 2.3 mph 84% 0.06 in 0.0 W/m2 RA
04:48 50.7 °F 46.0 °F 30.02 in Calm     84% 0.06 in 0.0 W/m2 +RA
04:53 50.7 °F 46.0 °F 30.02 in Calm     84% 0.06 in 0.0 W/m2 +RA
04:58 50.9 °F 46.2 °F 30.02 in WNW 2.3 mph 2.3 mph 84% 0.07 in 0.0 W/m2 +RA
05:03 51.0 °F 46.3 °F 30.02 in WNW 1.2 mph 1.2 mph 84% 0.09 in 0.0 W/m2 +RA
05:08 51.0 °F 46.3 °F 30.02 in Calm     84% 0.08 in 0.0 W/m2 +RA
05:13 51.0 °F 46.3 °F 30.02 in WNW 2.0 mph 2.0 mph 84% 0.10 in 0.0 W/m2 +RA
05:18 51.1 °F 46.4 °F 30.03 in Calm     84% 0.09 in 0.0 W/m2 +RA
05:23 51.2 °F 46.5 °F 30.02 in WNW 3.5 mph 3.5 mph 84% 0.10 in 0.0 W/m2 +RA
05:28 51.1 °F 46.4 °F 30.02 in Calm     84% 0.12 in 0.0 W/m2 +RA
05:33 51.1 °F 46.4 °F 30.03 in Calm     84% 0.14 in 0.0 W/m2 +RA
05:38 51.1 °F 46.4 °F 30.03 in WNW 1.0 mph   84% 0.16 in 0.0 W/m2 +RA
05:43 51.1 °F 46.4 °F 30.03 in Calm     84% 0.17 in 0.0 W/m2 RA
05:48 51.2 °F 46.5 °F 30.03 in Calm     84% 0.20 in 0.0 W/m2 RA
05:53 51.1 °F 46.4 °F 30.03 in Calm     84% 0.21 in 0.0 W/m2 RA
05:58 51.1 °F 46.4 °F 30.03 in Calm     84% 0.23 in 0.0 W/m2 RA
06:03 51.2 °F 46.8 °F 30.04 in Calm     85% 0.23 in 0.0 W/m2 +RA
06:08 51.2 °F 46.8 °F 30.03 in Calm     85% 0.24 in 0.0 W/m2 +RA
06:13 51.1 °F 46.7 °F 30.03 in Calm     85% 0.25 in 0.0 W/m2 +RA
06:18 51.0 °F 46.6 °F 30.02 in WNW 1.2 mph 1.2 mph 85% 0.27 in 0.0 W/m2 +RA
06:23 50.9 °F 46.6 °F 30.02 in Calm     85% 0.28 in 0.0 W/m2 +RA
06:28 51.0 °F 46.6 °F 30.02 in Calm     85% 0.27 in 0.0 W/m2 +RA
06:33 51.0 °F 46.6 °F 30.03 in Calm     85% 0.26 in 0.0 W/m2 +RA
06:38 51.0 °F 46.6 °F 30.02 in Calm     85% 0.25 in 0.0 W/m2 +RA
06:43 51.0 °F 46.6 °F 30.02 in Calm     85% 0.24 in 0.0 W/m2 +RA
06:48 51.0 °F 46.6 °F 30.02 in Calm     85% 0.22 in 0.0 W/m2 +RA
06:53 50.9 °F 46.6 °F 30.02 in Calm     85% 0.22 in 0.0 W/m2 +RA
06:58 51.0 °F 46.6 °F 30.02 in WNW 1.2 mph   85% 0.20 in 0.0 W/m2 +RA
07:03 51.0 °F 46.6 °F 30.02 in Calm     85% 0.20 in 0.0 W/m2 RA
07:08 51.1 °F 46.7 °F 30.01 in Calm     85% 0.19 in 0.0 W/m2 RA
07:13 51.1 °F 46.7 °F 30.01 in Calm     85% 0.17 in 0.0 W/m2 RA
07:18 51.2 °F 46.8 °F 30.02 in Calm     85% 0.15 in 0.0 W/m2 RA
07:23 51.3 °F 46.9 °F 30.03 in WNW 1.2 mph 1.2 mph 85% 0.14 in 0.0 W/m2 RA
07:28 51.3 °F 46.9 °F 30.03 in Calm     85% 0.14 in 0.0 W/m2 RA
07:33 51.4 °F 47.0 °F 30.03 in Calm     85% 0.14 in 0.0 W/m2 +RA
07:38 51.4 °F 47.0 °F 30.03 in Calm     85% 0.15 in 5.0 W/m2 +RA
07:43 51.3 °F 46.9 °F 30.03 in Calm     85% 0.15 in 7.0 W/m2 +RA
07:48 51.4 °F 47.0 °F 30.03 in Calm     85% 0.15 in 7.0 W/m2 RA
07:53 51.4 °F 47.0 °F 30.03 in Calm     85% 0.15 in 7.0 W/m2 RA
07:58 51.4 °F 47.0 °F 30.03 in Calm     85% 0.15 in 9.0 W/m2 RA
08:03 51.4 °F 47.0 °F 30.02 in Calm     85% 0.14 in 9.0 W/m2 -RA
08:08 51.5 °F 47.1 °F 30.02 in Calm     85% 0.14 in 12.0 W/m2 -RA
08:13 51.4 °F 47.0 °F 30.02 in Calm     85% 0.14 in 11.0 W/m2 -RA
08:18 51.5 °F 47.1 °F 30.02 in Calm     85% 0.14 in 14.0 W/m2 -RA
08:23 51.5 °F 47.1 °F 30.02 in Calm     85% 0.14 in 16.0 W/m2 -RA
08:28 51.6 °F 47.2 °F 30.03 in WNW 1.0 mph 1.0 mph 85% 0.14 in 12.0 W/m2 -RA
08:33 51.6 °F 47.2 °F 30.03 in WNW 1.2 mph   85% 0.14 in 14.0 W/m2 -RA
08:38 51.6 °F 47.2 °F 30.02 in NE 1.2 mph   85% 0.15 in 23.0 W/m2 -RA
08:43 51.6 °F 47.2 °F 30.01 in NE 1.2 mph   85% 0.15 in 28.0 W/m2 -RA
08:48 51.6 °F 47.2 °F 30.01 in NE 1.2 mph   85% 0.15 in 33.0 W/m2 -RA
08:53 51.7 °F 47.3 °F 30.01 in Calm     85% 0.13 in 37.0 W/m2 -RA
08:58 51.8 °F 47.4 °F 30.01 in Calm     85% 0.12 in 40.0 W/m2 -RA
09:03 51.8 °F 47.4 °F 30.01 in Calm     85% 0.12 in 37.0 W/m2 -RA
09:08 52.0 °F 47.6 °F 30.01 in Calm     85% 0.11 in 35.0 W/m2 -RA
09:13 52.1 °F 47.7 °F 30.01 in Calm     85% 0.10 in 35.0 W/m2 -RA
09:16 52.1 °F 47.7 °F 30.01 in Calm     85% 0.09 in 39.0 W/m2 OVC
09:21 52.2 °F 47.8 °F 30.01 in Calm     85% 0.08 in 53.0 W/m2 OVC
09:26 52.3 °F 47.9 °F 30.01 in Calm     85% 0.07 in 44.0 W/m2 OVC
09:31 52.4 °F 48.0 °F 30.01 in Calm     85% 0.06 in 42.0 W/m2 +RA
09:36 52.5 °F 48.1 °F 30.00 in NE 1.2 mph 1.2 mph 85% 0.05 in 49.0 W/m2 +RA
09:41 52.6 °F 48.2 °F 30.00 in Calm     85% 0.03 in 62.0 W/m2 -RA
09:46 52.7 °F 48.3 °F 29.99 in NE 1.2 mph 1.2 mph 85% 0.03 in 69.0 W/m2 -RA
09:51 52.8 °F 48.4 °F 30.00 in NE 1.2 mph 1.2 mph 85% 0.02 in 60.0 W/m2 -RA
09:56 53.1 °F 48.7 °F 30.00 in Calm     85% 0.03 in 49.0 W/m2 -RA
10:01 53.2 °F 49.1 °F 30.00 in NE 1.2 mph 1.2 mph 86% 0.02 in 53.0 W/m2 -RA
10:06 53.3 °F 49.2 °F 30.00 in Calm     86% 0.02 in 65.0 W/m2 -RA
10:11 53.4 °F 49.3 °F 30.00 in Calm     86% 0.02 in 49.0 W/m2 -RA
10:16 53.4 °F 49.3 °F 30.00 in Calm     86% 0.02 in 70.0 W/m2 -RA
10:21 53.5 °F 49.4 °F 30.00 in Calm     86% 0.02 in 69.0 W/m2 -RA
10:26 53.6 °F 49.2 °F 30.00 in Calm     85% 0.03 in 65.0 W/m2 -RA
10:31 53.6 °F 49.5 °F 30.00 in Calm     86% 0.03 in 62.0 W/m2 -RA
10:36 53.7 °F 49.6 °F 30.00 in Calm     86% 0.02 in 67.0 W/m2 -RA
10:41 53.7 °F 49.6 °F 30.00 in Calm     86% 0.02 in 65.0 W/m2 -RA
10:46 53.8 °F 49.4 °F 30.00 in Calm     85% 0.02 in 44.0 W/m2 -RA
10:51 53.9 °F 49.8 °F 30.00 in Calm     86% 0.02 in 33.0 W/m2 -RA
10:56 53.9 °F 49.8 °F 30.00 in Calm     86% 0.01 in 35.0 W/m2 -RA
11:01 54.0 °F 49.9 °F 30.00 in Calm     86% 0.02 in 39.0 W/m2 -RA
11:06 53.9 °F 49.8 °F 30.00 in Calm     86% 0.02 in 49.0 W/m2 -RA
11:11 53.9 °F 49.8 °F 30.00 in Calm     86% 0.04 in 37.0 W/m2 -RA
11:16 53.9 °F 49.8 °F 29.99 in Calm     86% 0.05 in 81.0 W/m2 -RA
11:21 53.9 °F 49.8 °F 29.99 in Calm     86% 0.06 in 83.0 W/m2 -RA
11:26 53.9 °F 49.8 °F 29.99 in Calm     86% 0.05 in 76.0 W/m2 -RA
11:31 54.0 °F 49.9 °F 29.98 in Calm     86% 0.06 in 74.0 W/m2 -RA
11:36 54.0 °F 49.9 °F 29.98 in NE 1.2 mph   86% 0.06 in 65.0 W/m2 -RA
11:37 54.0 °F 49.9 °F 29.98 in Calm     86% 0.06 in 67.0 W/m2 -RA
11:42 54.1 °F 50.0 °F 29.98 in Calm     86% 0.07 in 65.0 W/m2 -RA
11:47 54.0 °F 49.9 °F 29.98 in Calm     86% 0.07 in 63.0 W/m2 -RA
11:52 54.0 °F 49.9 °F 29.98 in Calm     86% 0.07 in 65.0 W/m2 -RA
11:57 54.1 °F 50.0 °F 29.97 in Calm     86% 0.08 in 88.0 W/m2 -RA
12:02 54.2 °F 50.1 °F 29.96 in NE 1.2 mph   86% 0.07 in 125.0 W/m2 OVC
12:07 54.3 °F 50.2 °F 29.96 in NE 1.2 mph   86% 0.08 in 97.0 W/m2 RA
12:12 54.3 °F 50.2 °F 29.96 in NE 2.3 mph 2.3 mph 86% 0.06 in 102.0 W/m2 OVC
12:17 54.3 °F 50.2 °F 29.95 in NE 1.0 mph 1.0 mph 86% 0.05 in 88.0 W/m2 +RA
12:22 54.3 °F 50.2 °F 29.95 in NE 2.3 mph 2.3 mph 86% 0.04 in 90.0 W/m2 +RA
12:27 54.3 °F 50.2 °F 29.95 in NE 1.2 mph 1.2 mph 86% 0.04 in 97.0 W/m2 +RA
12:32 54.4 °F 50.3 °F 29.95 in NE 2.3 mph 2.3 mph 86% 0.04 in 91.0 W/m2 -RA
12:37 54.5 °F 50.4 °F 29.94 in NE 2.3 mph 2.3 mph 86% 0.04 in 93.0 W/m2 -RA
12:42 54.6 °F 50.5 °F 29.94 in Calm     86% 0.03 in 97.0 W/m2 -RA
12:47 54.8 °F 50.7 °F 29.94 in NE 1.2 mph 1.2 mph 86% 0.03 in 105.0 W/m2 -RA
12:52 54.9 °F 50.8 °F 29.94 in NE 2.0 mph 2.0 mph 86% 0.03 in 83.0 W/m2 OVC
12:57 54.8 °F 50.7 °F 29.94 in NE 3.5 mph 3.5 mph 86% 0.02 in 83.0 W/m2 OVC
13:02 54.6 °F 50.5 °F 29.93 in NE 2.3 mph   86% 0.02 in 88.0 W/m2 -RA
13:07 54.6 °F 50.5 °F 29.93 in NE 2.3 mph 2.3 mph 86% 0.01 in 90.0 W/m2 -RA
13:12 54.7 °F 50.6 °F 29.93 in NE 2.3 mph 2.3 mph 86% 0.01 in 123.0 W/m2 -RA
13:17 54.7 °F 50.6 °F 29.93 in NE 1.2 mph 1.2 mph 86% 0.01 in 116.0 W/m2 OVC
13:22 54.8 °F 50.7 °F 29.93 in NE 1.2 mph 1.2 mph 86% 0.01 in 118.0 W/m2 OVC
13:27 54.8 °F 50.7 °F 29.92 in NE 2.3 mph 2.3 mph 86% 0.01 in 107.0 W/m2 OVC
13:32 54.7 °F 50.6 °F 29.92 in NE 2.3 mph 2.3 mph 86% 0.01 in 100.0 W/m2 RA
13:37 54.8 °F 50.7 °F 29.92 in NE 2.0 mph 2.0 mph 86% 0.01 in 95.0 W/m2 OVC
13:42 54.8 °F 50.7 °F 29.92 in NE 2.3 mph 2.3 mph 86% 0.01 in 95.0 W/m2 -RA
13:47 54.7 °F 50.6 °F 29.92 in Calm     86% 0.01 in 54.0 W/m2 -RA
13:52 54.7 °F 50.6 °F 29.92 in NE 3.5 mph 3.5 mph 86% 0.01 in 47.0 W/m2 -RA
13:57 54.7 °F 50.6 °F 29.92 in NE 3.5 mph 3.5 mph 86% 0.01 in 44.0 W/m2 -RA
14:02 54.8 °F 50.7 °F 29.92 in NE 2.3 mph 2.3 mph 86% 0.01 in 33.0 W/m2 OVC
14:07 54.8 °F 50.7 °F 29.91 in NE 2.3 mph 2.3 mph 86% 0.01 in 39.0 W/m2 OVC
14:12 54.7 °F 50.6 °F 29.91 in NE 3.5 mph 3.5 mph 86% 0.01 in 46.0 W/m2 -RA
14:17 54.7 °F 50.6 °F 29.92 in NE 2.3 mph 2.3 mph 86% 0.01 in 39.0 W/m2 -RA
14:22 54.7 °F 50.6 °F 29.91 in NE 2.3 mph 2.3 mph 86% 0.02 in 54.0 W/m2 -RA
14:27 54.7 °F 50.6 °F 29.91 in NE 2.0 mph 2.0 mph 86% 0.02 in 49.0 W/m2 -RA
14:32 54.6 °F 50.5 °F 29.91 in NE 5.8 mph 5.8 mph 86% 0.02 in 39.0 W/m2 -RA
14:37 53.7 °F 49.3 °F 29.91 in NE 5.8 mph 5.8 mph 85% 0.02 in 46.0 W/m2 -RA
14:42 52.4 °F 48.3 °F 29.91 in NNE 5.8 mph 5.8 mph 86% 0.02 in 42.0 W/m2 -RA
14:47 51.1 °F 46.7 °F 29.91 in NE 8.1 mph 8.1 mph 85% 0.02 in 51.0 W/m2 -RA
14:52 50.1 °F 45.8 °F 29.91 in NNE 5.0 mph 5.0 mph 85% 0.02 in 39.0 W/m2 -RA
14:57 49.4 °F 45.1 °F 29.91 in NNE 4.0 mph 4.0 mph 85% 0.02 in 40.0 W/m2 -RA
15:02 48.8 °F 44.5 °F 29.91 in NE 6.9 mph 6.9 mph 85% 0.03 in 49.0 W/m2 -RA
15:07 48.3 °F 44.0 °F 29.91 in NE 4.6 mph 4.6 mph 85% 0.03 in 54.0 W/m2 -RA
15:12 48.0 °F 43.7 °F 29.91 in NNE 7.0 mph 7.0 mph 85% 0.03 in 51.0 W/m2 -RA
15:17 47.9 °F 43.6 °F 29.91 in NNE 4.0 mph 4.0 mph 85% 0.03 in 40.0 W/m2 -RA
15:22 47.5 °F 43.2 °F 29.91 in NE 10.4 mph 10.4 mph 85% 0.02 in 42.0 W/m2 -RA
15:27 47.3 °F 43.0 °F 29.91 in NE 5.8 mph 5.8 mph 85% 0.02 in 44.0 W/m2 -RA
15:32 47.3 °F 43.0 °F 29.91 in NE 9.2 mph 9.2 mph 85% 0.01 in 37.0 W/m2 -RA
15:37 47.1 °F 42.8 °F 29.91 in NNE 4.6 mph 4.6 mph 85% 0.02 in 28.0 W/m2 -RA
15:42 47.0 °F 42.7 °F 29.92 in NNE 3.5 mph 3.5 mph 85% 0.02 in 25.0 W/m2 -RA
15:47 46.7 °F 42.4 °F 29.92 in NNE 6.9 mph 6.9 mph 85% 0.02 in 21.0 W/m2 -RA
15:52 46.6 °F 42.3 °F 29.93 in NNE 5.8 mph 5.8 mph 85% 0.02 in 18.0 W/m2 -RA
15:57 46.5 °F 42.2 °F 29.92 in NNE 3.5 mph 3.5 mph 85% 0.02 in 18.0 W/m2 -RA
16:02 46.4 °F 42.1 °F 29.92 in NW 3.5 mph 3.5 mph 85% 0.01 in 19.0 W/m2 -RA
16:07 46.2 °F 41.9 °F 29.92 in NE 5.8 mph 5.8 mph 85% 0.02 in 19.0 W/m2 -RA
16:12 45.9 °F 41.6 °F 29.92 in NNE 6.0 mph 6.0 mph 85% 0.02 in 19.0 W/m2 -RA
16:17 45.7 °F 41.4 °F 29.93 in NNE 3.5 mph 3.5 mph 85% 0.02 in 12.0 W/m2 -RA
16:22 45.5 °F 41.3 °F 29.92 in NE 3.5 mph 3.5 mph 85% 0.02 in 14.0 W/m2 -RA
16:27 45.3 °F 41.1 °F 29.92 in NNE 9.2 mph 9.2 mph 85% 0.02 in 14.0 W/m2 -RA
16:32 45.0 °F 40.8 °F 29.92 in NE 5.8 mph 5.8 mph 85% 0.02 in 12.0 W/m2 -RA
16:37 44.9 °F 40.7 °F 29.93 in NNE 3.5 mph 3.5 mph 85% 0.01 in 12.0 W/m2 -RA
16:42 44.8 °F 40.6 °F 29.92 in NNE 4.0 mph 4.0 mph 85% 0.01 in 11.0 W/m2 -RA
16:47 44.5 °F 40.3 °F 29.93 in NNE 9.2 mph 9.2 mph 85% 0.01 in 9.0 W/m2 -RA
16:52 44.4 °F 40.2 °F 29.93 in NNE 4.0 mph 4.0 mph 85% 0.02 in 7.0 W/m2 -RA
16:57 44.3 °F 40.1 °F 29.93 in NNE 8.1 mph 8.1 mph 85% 0.02 in 5.0 W/m2 -RA
17:02 44.2 °F 40.0 °F 29.93 in NNE 4.6 mph 4.6 mph 85% 0.02 in 5.0 W/m2 -RA
17:07 44.1 °F 39.9 °F 29.93 in NE 4.6 mph 4.6 mph 85% 0.01 in 0.0 W/m2 -RA
17:12 44.0 °F 39.8 °F 29.93 in NNE 3.5 mph 3.5 mph 85% 0.01 in 0.0 W/m2 -RA
17:17 43.8 °F 39.6 °F 29.93 in NE 8.1 mph 8.1 mph 85% 0.01 in 0.0 W/m2 -RA
17:22 43.8 °F 39.6 °F 29.93 in NE 3.5 mph 3.5 mph 85% 0.01 in 0.0 W/m2 -RA
17:27 43.8 °F 39.6 °F 29.92 in NE 4.6 mph 4.6 mph 85% 0.01 in 0.0 W/m2 -RA
17:32 43.6 °F 39.4 °F 29.92 in NE 8.1 mph 8.1 mph 85% 0.02 in 0.0 W/m2 -RA
17:37 43.4 °F 39.2 °F 29.91 in ENE 8.1 mph 8.1 mph 85% 0.02 in 0.0 W/m2 -RA
17:42 43.4 °F 39.2 °F 29.91 in East 5.8 mph 5.8 mph 85% 0.02 in 0.0 W/m2 -RA
17:47 43.3 °F 39.1 °F 29.92 in NNE 6.0 mph 6.0 mph 85% 0.02 in 0.0 W/m2 -RA
17:52 43.2 °F 39.0 °F 29.92 in NNE 5.8 mph 5.8 mph 85% 0.01 in 0.0 W/m2 -RA
17:57 43.2 °F 39.0 °F 29.92 in NE 10.0 mph 10.0 mph 85% 0.01 in 0.0 W/m2 -RA
18:02 43.0 °F 38.8 °F 29.92 in ENE 6.9 mph 6.9 mph 85% 0.01 in 0.0 W/m2 -RA
18:07 42.8 °F 38.6 °F 29.93 in NE 7.0 mph 7.0 mph 85% 0.01 in 0.0 W/m2 -RA
18:12 42.4 °F 38.2 °F 29.93 in NE 10.0 mph 10.0 mph 85% 0.01 in 0.0 W/m2 -RA
18:17 42.1 °F 37.9 °F 29.93 in ENE 9.2 mph 9.2 mph 85% 0.01 in 0.0 W/m2 -RA
18:22 41.9 °F 37.7 °F 29.93 in NNE 10.4 mph 10.4 mph 85% 0.02 in 0.0 W/m2 -RA
18:27 41.9 °F 37.7 °F 29.93 in NNE 8.1 mph 8.1 mph 85% 0.02 in 0.0 W/m2 -RA
18:32 41.8 °F 37.6 °F 29.93 in NE 9.2 mph 9.2 mph 85% 0.01 in 0.0 W/m2 -RA
18:37 41.8 °F 37.9 °F 29.93 in NE 5.8 mph 5.8 mph 86% 0.01 in 0.0 W/m2 -RA
18:42 41.8 °F 37.9 °F 29.93 in NE 3.5 mph 3.5 mph 86% 0.01 in 0.0 W/m2 -RA
18:47 41.6 °F 37.4 °F 29.93 in NNE 9.2 mph 9.2 mph 85% 0.01 in 0.0 W/m2 -RA
18:52 41.5 °F 37.3 °F 29.93 in NE 6.9 mph 6.9 mph 85% 0.01 in 0.0 W/m2 -RA
18:57 41.4 °F 37.2 °F 29.93 in ENE 6.0 mph 6.0 mph 85% 0.01 in 0.0 W/m2 -RA
19:02 41.3 °F 37.1 °F 29.93 in ENE 6.0 mph 6.0 mph 85% 0.01 in 0.0 W/m2 -RA
19:07 41.3 °F 37.4 °F 29.92 in NE 4.6 mph 4.6 mph 86% 0.01 in 0.0 W/m2 -RA
19:12 41.2 °F 37.3 °F 29.93 in NNE 10.0 mph 10.0 mph 86% 0.01 in 0.0 W/m2 -RA
19:17 41.2 °F 37.3 °F 29.93 in NNE 6.9 mph 6.9 mph 86% 0.01 in 0.0 W/m2 -RA
19:22 41.1 °F 37.2 °F 29.93 in NE 8.1 mph 8.1 mph 86% 0.00 in 0.0 W/m2 -RA
19:27 41.2 °F 37.3 °F 29.93 in NNE 10.4 mph 10.4 mph 86% 0.00 in 0.0 W/m2 -RA
19:32 41.1 °F 37.2 °F 29.93 in NNE 9.0 mph 9.0 mph 86% 0.00 in 0.0 W/m2 -RA
19:37 41.1 °F 37.2 °F 29.93 in North 6.9 mph 6.9 mph 86% 0.00 in 0.0 W/m2 -RA
19:42 41.1 °F 37.2 °F 29.92 in NNE 4.6 mph 4.6 mph 86% 0.00 in 0.0 W/m2 -RA
19:47 41.2 °F 37.3 °F 29.92 in NE 4.0 mph 4.0 mph 86% 0.01 in 0.0 W/m2 -RA
19:52 41.2 °F 37.3 °F 29.92 in NNE 8.1 mph 8.1 mph 86% 0.01 in 0.0 W/m2 -RA
19:57 41.2 °F 37.3 °F 29.92 in NE 5.8 mph 5.8 mph 86% 0.01 in 0.0 W/m2 -RA
20:02 41.2 °F 37.3 °F 29.92 in NE 3.5 mph 3.5 mph 86% 0.01 in 0.0 W/m2 OVC
20:07 41.2 °F 37.3 °F 29.92 in NNE 5.8 mph 5.8 mph 86% 0.01 in 0.0 W/m2 OVC
20:12 41.1 °F 37.2 °F 29.92 in NNE 3.5 mph 3.5 mph 86% 0.01 in 0.0 W/m2 OVC
20:17 41.1 °F 37.2 °F 29.92 in ENE 3.5 mph 3.5 mph 86% 0.02 in 0.0 W/m2 RA
20:22 41.0 °F 37.1 °F 29.92 in NNE 4.6 mph 4.6 mph 86% 0.02 in 0.0 W/m2 OVC
20:27 40.8 °F 36.9 °F 29.92 in NE 6.9 mph 6.9 mph 86% 0.02 in 0.0 W/m2 OVC
20:32 40.8 °F 36.9 °F 29.92 in NNE 6.9 mph 6.9 mph 86% 0.02 in 0.0 W/m2 OVC
20:37 40.8 °F 36.9 °F 29.92 in NNE 3.5 mph 3.5 mph 86% 0.02 in 0.0 W/m2 OVC
20:42 40.8 °F 36.9 °F 29.91 in NE 4.6 mph 4.6 mph 86% 0.02 in 0.0 W/m2 OVC
20:47 40.7 °F 36.8 °F 29.91 in NE 4.0 mph 4.3 mph 86% 0.01 in 0.0 W/m2 OVC
20:52 40.7 °F 36.8 °F 29.91 in NNE 4.6 mph 4.6 mph 86% 0.01 in 0.0 W/m2 OVC
20:57 40.6 °F 36.7 °F 29.92 in NNE 3.5 mph 3.5 mph 86% 0.01 in 0.0 W/m2 OVC
21:02 40.6 °F 36.7 °F 29.91 in NE 3.5 mph 3.5 mph 86% 0.01 in 0.0 W/m2 OVC
21:07 40.6 °F 36.7 °F 29.91 in ENE 6.0 mph 6.0 mph 86% 0.01 in 0.0 W/m2 OVC
21:12 40.4 °F 36.5 °F 29.91 in ENE 3.5 mph 3.5 mph 86% 0.01 in 0.0 W/m2 OVC
21:17 40.5 °F 36.6 °F 29.91 in NNE 3.5 mph 3.5 mph 86% 0.00 in 0.0 W/m2 OVC
21:22 40.5 °F 36.6 °F 29.91 in NNE 3.0 mph 3.0 mph 86% 0.00 in 0.0 W/m2 OVC
21:27 40.5 °F 36.6 °F 29.92 in NE 3.5 mph   86% 0.00 in 0.0 W/m2 OVC
21:32 40.4 °F 36.5 °F 29.91 in NE 3.5 mph 3.5 mph 86% 0.00 in 0.0 W/m2 -RA
21:37 40.4 °F 36.5 °F 29.91 in NE 3.5 mph 3.5 mph 86% 0.00 in 0.0 W/m2 -RA
21:42 40.4 °F 36.5 °F 29.91 in NE 2.3 mph 2.3 mph 86% 0.00 in 0.0 W/m2 -RA
21:47 40.3 °F 36.4 °F 29.91 in NE 4.0 mph 4.0 mph 86% 0.00 in 0.0 W/m2 -RA
21:52 40.3 °F 36.4 °F 29.91 in NE 5.8 mph 5.8 mph 86% 0.00 in 0.0 W/m2 -RA
21:57 40.2 °F 36.3 °F 29.90 in NE 2.0 mph 2.0 mph 86% 0.00 in 0.0 W/m2 -RA
22:02 40.2 °F 36.3 °F 29.90 in NE 3.5 mph 3.5 mph 86% 0.00 in 0.0 W/m2 -RA
22:07 40.3 °F 36.4 °F 29.90 in NE 3.5 mph 3.5 mph 86% 0.00 in 0.0 W/m2 -RA
22:12 40.2 °F 36.3 °F 29.90 in NE 3.5 mph 3.5 mph 86% 0.00 in 0.0 W/m2 -RA
22:17 40.2 °F 36.3 °F 29.90 in NE 2.3 mph 2.3 mph 86% 0.00 in 0.0 W/m2 -RA
22:22 40.1 °F 36.2 °F 29.90 in NE 2.3 mph 2.3 mph 86% 0.00 in 0.0 W/m2 -RA
22:27 40.1 °F 36.2 °F 29.90 in NNE 3.5 mph 3.5 mph 86% 0.00 in 0.0 W/m2 -RA
22:32 40.1 °F 36.2 °F 29.90 in NE 4.0 mph 4.0 mph 86% 0.01 in 0.0 W/m2 -RA
22:37 40.0 °F 36.2 °F 29.89 in NE 3.5 mph 3.5 mph 86% 0.02 in 0.0 W/m2 -RA
22:42 40.0 °F 36.2 °F 29.89 in NE 1.2 mph   86% 0.04 in 0.0 W/m2 -RA
22:47 40.0 °F 36.2 °F 29.89 in NE 3.5 mph 3.5 mph 86% 0.04 in 0.0 W/m2 -RA
22:52 40.0 °F 36.2 °F 29.89 in NE 3.5 mph 3.5 mph 86% 0.05 in 0.0 W/m2 -RA
22:57 40.0 °F 36.2 °F 29.89 in NNE 3.5 mph 3.5 mph 86% 0.06 in 0.0 W/m2 -RA
23:02 40.0 °F 36.2 °F 29.89 in NNE 3.5 mph 3.5 mph 86% 0.07 in 0.0 W/m2 RA
23:07 40.0 °F 36.2 °F 29.89 in NNE 3.5 mph   86% 0.09 in 0.0 W/m2 RA
23:12 40.0 °F 36.2 °F 29.89 in NE 3.5 mph 3.5 mph 86% 0.10 in 0.0 W/m2 RA
23:17 40.0 °F 36.2 °F 29.89 in NE 1.2 mph 1.2 mph 86% 0.10 in 0.0 W/m2 OVC
23:22 39.9 °F 36.1 °F 29.89 in Calm     86% 0.10 in 0.0 W/m2 OVC
23:27 39.9 °F 36.1 °F 29.89 in NE 2.3 mph 2.3 mph 86% 0.10 in 0.0 W/m2 OVC
23:32 39.9 °F 36.1 °F 29.89 in NE 2.3 mph 2.3 mph 86% 0.09 in 0.0 W/m2 OVC
23:37 39.9 °F 36.1 °F 29.89 in NE 3.5 mph 3.5 mph 86% 0.08 in 0.0 W/m2 OVC
23:42 39.8 °F 36.0 °F 29.89 in NE 3.0 mph 3.0 mph 86% 0.06 in 0.0 W/m2 OVC
23:47 39.9 °F 36.1 °F 29.88 in NE 2.3 mph 2.3 mph 86% 0.06 in 0.0 W/m2 OVC
23:52 39.8 °F 36.0 °F 29.89 in NE 1.2 mph   86% 0.05 in 0.0 W/m2 OVC
23:57 39.9 °F 36.1 °F 29.89 in NE 3.0 mph 3.0 mph 86% 0.05 in 0.0 W/m2 RA
Bruceton, TN. NWS Weather Forecast
Compliments of:  Weather Underground - 5.25 mb

Interesting Weather Facts
HOTTEST YEAR EVER
Through August 2007, the U.S. experienced its hottest year ever. During the month of August, more than 8,000 new heat maximum and minimum records were set or tied across the country.